Weather History for KIKV - April, 2013

Change the Weather History Date:

Saturday, April 6, 2013

  Actual Average (KDSM) Record (KDSM)
Temperature  
Mean Temperature 57 °F 48 °F  
Max Temperature 66 °F 59 °F 88 °F (1991)
Min Temperature 46 °F 37 °F 10 °F (1982)
Degree Days  
Heating Degree Days 8 17  
Month to date heating degree days 109  
Since 1 July heating degree days 5736  
Cooling Degree Days 0 0  
Month to date cooling degree days 0  
Year to date cooling degree days 1  
Growing Degree Days 7 (Base 50)    
Moisture  
Dew Point 40 °F    
Average Humidity 52    
Maximum Humidity 82    
Minimum Humidity 41    
Precipitation  
Precipitation 0.00 in 0.10 in 1.56 in (1938)
Month to date precipitation 0.59  
Year to date precipitation 5.17  
Snow  
Snow 0.00 in 0.10 in 2.00 in (2003)
Month to date snowfall 0.6  
Since 1 July snowfall 34.1  
Snow Depth -    
Sea Level Pressure  
Sea Level Pressure 29.68 in    
Wind  
Wind Speed 13 mph (SSW)    
Max Wind Speed 22 mph    
Max Gust Speed 29 mph    
Visibility 10 miles    
Events Rain    
T = Trace of Precipitation, MM = Missing Value Source: NWS Daily Summary

Daily Weather History Graph

Daily Weather History Graph

Search for Another Location

Airport or City:

Trip Planner

Search our weather history database for the weather conditions in past years. The results will help you decide how hot, cold, wet, or windy it might be!

Date:

Astronomy

Apr. 06, 2013 Rise Set
Actual Time 6:48 AM CDT 7:45 PM CDT
Civil Twilight 6:20 AM CDT 8:13 PM CDT
Nautical Twilight 5:46 AM CDT 8:47 PM CDT
Astronomical Twilight 5:11 AM CDT 9:22 PM CDT
Moon 4:35 AM CDT (4/6) 4:12 PM CDT (4/6)
Length of Visible Light 13h 53m
Length of Day
12h 57m
Waning Crescent, 15% of the Moon is Illuminated
Apr 6
Waning Crescent
Apr 10
New
Apr 18
First Quarter
Apr 25
Full
May 2
Last Quarter

Hourly Weather History & Observations

Time (CDT) Temp. Windchill Dew Point Humidity Pressure Visibility Wind Dir Wind Speed Gust Speed Precip Events Conditions
12:15 AM 55.4 °F - 32.0 °F 41% 29.83 in 10.0 mi SE 13.8 mph 19.6 mph N/A   Clear
12:35 AM 55.4 °F - 33.8 °F 44% 29.82 in 10.0 mi SSE 12.7 mph - N/A   Clear
12:55 AM 55.4 °F - 33.8 °F 44% 29.83 in 10.0 mi SSE 15.0 mph 19.6 mph N/A   Clear
1:15 AM 55.4 °F - 33.8 °F 44% 29.82 in 10.0 mi SSE 13.8 mph - N/A   Clear
1:35 AM 55.4 °F - 33.8 °F 44% 29.82 in 10.0 mi SSE 13.8 mph - N/A   Clear
1:55 AM 55.4 °F - 33.8 °F 44% 29.81 in 10.0 mi SSE 12.7 mph - N/A   Clear
2:15 AM 55.4 °F - 33.8 °F 44% 29.80 in 10.0 mi SSE 11.5 mph 18.4 mph N/A   Clear
2:35 AM 55.4 °F - 33.8 °F 44% 29.79 in 10.0 mi SE 12.7 mph - N/A   Clear
2:55 AM 55.4 °F - 33.8 °F 44% 29.78 in 10.0 mi SE 13.8 mph 18.4 mph N/A   Clear
3:15 AM 53.6 °F - 35.6 °F 51% 29.75 in 10.0 mi SE 13.8 mph - N/A   Scattered Clouds
3:35 AM 55.4 °F - 37.4 °F 51% 29.75 in 10.0 mi South 17.3 mph 23.0 mph N/A   Light Drizzle
3:55 AM 55.4 °F - 35.6 °F 47% 29.75 in 10.0 mi SSE 20.7 mph - N/A   Mostly Cloudy
4:15 AM 55.4 °F - 35.6 °F 47% 29.74 in 10.0 mi SSE 15.0 mph - N/A   Mostly Cloudy
4:35 AM 55.4 °F - 35.6 °F 47% 29.73 in 10.0 mi SE 10.4 mph - N/A   Mostly Cloudy
4:55 AM 53.6 °F - 37.4 °F 54% 29.73 in 10.0 mi SE 6.9 mph - N/A Rain Light Rain
5:15 AM 53.6 °F - 37.4 °F 54% 29.72 in 10.0 mi SSE 13.8 mph - N/A   Scattered Clouds
5:35 AM 55.4 °F - 37.4 °F 51% 29.71 in 10.0 mi SSE 9.2 mph - N/A   Clear
5:55 AM 55.4 °F - 37.4 °F 51% 29.71 in 10.0 mi SSE 10.4 mph - N/A   Clear
6:15 AM 53.6 °F - 37.4 °F 54% 29.70 in 10.0 mi SSE 9.2 mph - N/A   Clear
6:35 AM 53.6 °F - 37.4 °F 54% 29.69 in 10.0 mi SSE 10.4 mph - N/A   Clear
6:55 AM 53.6 °F - 37.4 °F 54% 29.69 in 10.0 mi SSE 9.2 mph - N/A   Clear
7:15 AM 51.8 °F - 37.4 °F 58% 29.69 in 10.0 mi South 8.1 mph - N/A   Clear
7:35 AM 53.6 °F - 37.4 °F 54% 29.69 in 10.0 mi South 10.4 mph - N/A   Clear
7:55 AM 57.2 °F - 37.4 °F 48% 29.68 in 10.0 mi South 12.7 mph 18.4 mph N/A   Clear
8:15 AM 57.2 °F - 37.4 °F 48% 29.66 in 10.0 mi South 13.8 mph 17.3 mph N/A   Clear
8:35 AM 57.2 °F - 37.4 °F 48% 29.66 in 10.0 mi South 16.1 mph 23.0 mph N/A   Clear
8:55 AM 57.2 °F - 37.4 °F 48% 29.65 in 10.0 mi South 16.1 mph 23.0 mph N/A   Clear
9:15 AM 59.0 °F - 37.4 °F 45% 29.64 in 10.0 mi South 18.4 mph 25.3 mph N/A   Clear
9:35 AM 60.8 °F - 37.4 °F 42% 29.64 in 10.0 mi South 20.7 mph 24.2 mph N/A   Clear
9:55 AM 59.0 °F - 37.4 °F 45% 29.63 in 10.0 mi SSW 19.6 mph 24.2 mph N/A   Clear
10:15 AM 60.8 °F - 39.2 °F 45% 29.63 in 10.0 mi SSW 19.6 mph 25.3 mph N/A   Clear
10:35 AM 60.8 °F - 39.2 °F 45% 29.62 in 10.0 mi SSW 18.4 mph 24.2 mph N/A   Clear
10:55 AM 60.8 °F - 39.2 °F 45% 29.62 in 10.0 mi SSW 18.4 mph 26.5 mph N/A   Clear
11:15 AM 62.6 °F - 41.0 °F 45% 29.61 in 10.0 mi SSW 20.7 mph 25.3 mph N/A   Clear
11:35 AM 62.6 °F - 41.0 °F 45% 29.60 in 10.0 mi SSW 20.7 mph 27.6 mph N/A   Clear
11:55 AM 62.6 °F - 42.8 °F 48% 29.60 in 10.0 mi SSW 19.6 mph 28.8 mph N/A   Clear
12:15 PM 62.6 °F - 42.8 °F 48% 29.60 in 10.0 mi SW 20.7 mph 26.5 mph N/A   Mostly Cloudy
12:35 PM 62.6 °F - 42.8 °F 48% 29.60 in 10.0 mi SW 17.3 mph 27.6 mph N/A   Overcast
12:55 PM 64.4 °F - 42.8 °F 45% 29.59 in 10.0 mi SW 18.4 mph 24.2 mph N/A   Overcast
1:15 PM 62.6 °F - 42.8 °F 48% 29.59 in 10.0 mi SW 11.5 mph 18.4 mph N/A   Overcast
1:35 PM 64.4 °F - 44.6 °F 49% 29.58 in 10.0 mi SSW 16.1 mph 20.7 mph N/A   Overcast
1:55 PM 64.4 °F - 44.6 °F 49% 29.58 in 10.0 mi SW 13.8 mph 21.9 mph N/A   Mostly Cloudy
2:15 PM 64.4 °F - 44.6 °F 49% 29.57 in 10.0 mi SSW 12.7 mph - N/A   Overcast
2:35 PM 66.2 °F - 44.6 °F 46% 29.56 in 10.0 mi SSW 11.5 mph - N/A   Mostly Cloudy
2:55 PM 66.2 °F - 44.6 °F 46% 29.55 in 10.0 mi SSW 11.5 mph - N/A   Mostly Cloudy
3:15 PM 66.2 °F - 44.6 °F 46% 29.55 in 10.0 mi SW 10.4 mph 16.1 mph N/A   Overcast
3:35 PM 66.2 °F - 42.8 °F 43% 29.55 in 10.0 mi West 10.4 mph - N/A   Overcast
3:55 PM 66.2 °F - 44.6 °F 46% 29.56 in 10.0 mi West 21.9 mph 27.6 mph N/A   Overcast
4:15 PM 62.6 °F - 44.6 °F 52% 29.58 in 10.0 mi West 17.3 mph 24.2 mph N/A   Light Drizzle
4:35 PM 60.8 °F - 42.8 °F 52% 29.59 in 10.0 mi West 17.3 mph 23.0 mph N/A   Mostly Cloudy
4:55 PM 60.8 °F - 42.8 °F 52% 29.60 in 10.0 mi WNW 17.3 mph 24.2 mph N/A   Mostly Cloudy
5:15 PM 60.8 °F - 42.8 °F 52% 29.61 in 10.0 mi WNW 15.0 mph - N/A   Mostly Cloudy
5:35 PM 62.6 °F - 42.8 °F 48% 29.61 in 10.0 mi West 17.3 mph 20.7 mph N/A   Scattered Clouds
5:55 PM 60.8 °F - 42.8 °F 52% 29.63 in 10.0 mi West 19.6 mph 26.5 mph N/A   Scattered Clouds
6:15 PM 60.8 °F - 41.0 °F 48% 29.64 in 10.0 mi West 20.7 mph 26.5 mph N/A   Mostly Cloudy
6:35 PM 60.8 °F - 39.2 °F 45% 29.66 in 10.0 mi WNW 15.0 mph 27.6 mph N/A   Mostly Cloudy
6:55 PM 60.8 °F - 41.0 °F 48% 29.66 in 10.0 mi WNW 12.7 mph 18.4 mph N/A   Scattered Clouds
7:15 PM 60.8 °F - 41.0 °F 48% 29.67 in 10.0 mi WNW 11.5 mph 17.3 mph N/A   Clear
7:55 PM 57.2 °F - 42.8 °F 59% 29.69 in 10.0 mi WNW 8.1 mph - N/A   Clear
8:15 PM 55.4 °F - 41.0 °F 58% 29.70 in 10.0 mi WNW 4.6 mph - N/A   Clear
8:35 PM 55.4 °F - 42.8 °F 63% 29.71 in 10.0 mi WNW 4.6 mph - N/A   Clear
8:55 PM 55.4 °F - 42.8 °F 63% 29.71 in 10.0 mi WNW 3.5 mph - N/A   Clear
9:15 PM 53.6 °F - 42.8 °F 67% 29.73 in 10.0 mi NW 3.5 mph - N/A   Clear
9:35 PM 53.6 °F - 42.8 °F 67% 29.74 in 10.0 mi NW 4.6 mph - N/A   Clear
9:55 PM 51.8 °F - 42.8 °F 71% 29.75 in 10.0 mi NNW 4.6 mph - N/A   Clear
10:15 PM 51.8 °F - 42.8 °F 71% 29.76 in 10.0 mi North 6.9 mph - N/A   Clear
10:35 PM 50.0 °F - 42.8 °F 76% 29.77 in 10.0 mi North 8.1 mph - N/A   Clear
10:55 PM 48.2 °F - 42.8 °F 82% 29.77 in 10.0 mi North 5.8 mph - N/A   Clear
11:15 PM 48.2 °F - 41.0 °F 76% 29.78 in 10.0 mi NNW 4.6 mph - N/A   Clear
11:35 PM 48.2 °F - 39.2 °F 71% 29.78 in 10.0 mi NNW 4.6 mph - N/A   Clear
11:55 PM 46.4 °F 43.5 °F 39.2 °F 76% 29.79 in 10.0 mi NNW 5.8 mph - N/A   Clear